Time;durP1;ratioP1;P1;durP2;ratioP2;P2;SDS_P1;SDS_P2;PMS_P1;PMS_P2;Temp;Humidity;BMP_temperature;BMP_pressure;BME280_temperature;BME280_humidity;BME280_pressure;Samples;Min_cycle;Max_cycle;Signal;HPM_P1;HPM_P2
2023/02/07 00:02:10;;;;;;;11.53;9.00;;;;;;;4.42;52.18;99262.94;5011229;28;20228;-69
2023/02/07 00:04:36;;;;;;;13.20;9.30;;;;;;;4.38;51.27;99284.75;5011303;28;20213;-70
2023/02/07 00:07:01;;;;;;;12.70;8.63;;;;;;;4.22;50.67;99281.06;5010466;28;20184;-69
2023/02/07 00:09:27;;;;;;;14.90;9.43;;;;;;;4.14;50.36;99282.25;5010414;28;20300;-70
2023/02/07 00:11:52;;;;;;;12.10;8.83;;;;;;;4.17;50.54;99280.41;5011325;28;20191;-68
2023/02/07 00:14:17;;;;;;;12.20;8.83;;;;;;;4.21;50.95;99288.03;5010823;28;20219;-70
2023/02/07 00:16:43;;;;;;;13.27;8.33;;;;;;;4.23;51.39;99285.38;5016123;28;20317;-69
2023/02/07 00:19:08;;;;;;;13.93;9.10;;;;;;;4.12;50.84;99293.56;5010501;28;20295;-69
2023/02/07 00:21:34;;;;;;;11.57;8.37;;;;;;;4.04;49.78;99296.44;4993181;28;20208;-69
2023/02/07 00:23:59;;;;;;;9.63;8.00;;;;;;;3.86;50.26;99281.63;5010671;28;20543;-69
2023/02/07 00:26:26;;;;;;;11.00;8.60;;;;;;;4.03;50.59;99294.78;5009973;28;20184;-69
2023/02/07 00:28:53;;;;;;;14.53;8.80;;;;;;;4.15;50.16;99286.53;5010344;28;20204;-68
2023/02/07 00:31:22;;;;;;;12.47;9.00;;;;;;;3.97;49.94;99279.44;5018516;28;20434;-68
2023/02/07 00:33:49;;;;;;;12.67;8.90;;;;;;;3.97;50.01;99288.06;5010501;28;20526;-68
2023/02/07 00:36:20;;;;;;;11.47;8.30;;;;;;;4.02;50.48;99287.91;5010019;28;20459;-69
2023/02/07 00:38:46;;;;;;;12.77;8.00;;;;;;;3.98;49.83;99283.72;5013793;28;20486;-69
2023/02/07 00:41:14;;;;;;;11.57;8.30;;;;;;;3.96;49.46;99278.63;5013855;28;20911;-68
2023/02/07 00:43:40;;;;;;;12.00;7.87;;;;;;;4.08;50.11;99286.81;5006924;28;20897;-70
2023/02/07 00:46:06;;;;;;;11.53;8.33;;;;;;;3.99;49.07;99288.03;4987685;28;20431;-69
2023/02/07 00:48:31;;;;;;;13.17;8.87;;;;;;;4.05;49.40;99276.56;5009575;28;20447;-69
2023/02/07 00:50:57;;;;;;;13.17;7.60;;;;;;;3.95;49.17;99279.53;5010126;28;20299;-68
2023/02/07 00:53:23;;;;;;;10.50;7.53;;;;;;;3.95;49.71;99270.88;5012125;28;20557;-69
2023/02/07 00:55:48;;;;;;;13.30;8.27;;;;;;;4.02;49.30;99267.16;5012975;28;20617;-69
2023/02/07 00:58:14;;;;;;;9.93;7.23;;;;;;;4.08;49.27;99274.69;5014601;28;20188;-68
2023/02/07 01:00:39;;;;;;;10.80;7.60;;;;;;;4.04;49.60;99270.50;5010395;28;20184;-69
2023/02/07 01:03:05;;;;;;;11.30;8.33;;;;;;;4.09;49.77;99278.97;5010128;28;20189;-69
2023/02/07 01:05:30;;;;;;;11.23;8.37;;;;;;;4.03;49.19;99281.81;5010111;28;20188;-69
2023/02/07 01:07:56;;;;;;;11.30;8.37;;;;;;;3.97;49.19;99279.44;5009649;28;20712;-69
2023/02/07 01:10:23;;;;;;;10.53;7.50;;;;;;;3.99;49.58;99277.66;5010921;28;20208;-69
2023/02/07 01:12:49;;;;;;;10.70;7.90;;;;;;;3.96;49.50;99265.63;5013573;28;20549;-69
2023/02/07 01:15:15;;;;;;;13.73;8.70;;;;;;;3.89;49.73;99261.56;5010809;28;20489;-69
2023/02/07 01:17:40;;;;;;;10.77;7.67;;;;;;;3.86;49.62;99253.06;5013881;28;20988;-68
2023/02/07 01:20:06;;;;;;;16.63;8.80;;;;;;;3.88;49.20;99248.69;5012003;28;20630;-68
2023/02/07 01:22:31;;;;;;;12.90;7.67;;;;;;;3.91;49.11;99245.94;5018858;28;20263;-69
2023/02/07 01:24:57;;;;;;;10.70;7.70;;;;;;;3.97;49.68;99248.31;5010769;28;21022;-68
2023/02/07 01:27:23;;;;;;;14.80;9.17;;;;;;;3.93;49.67;99257.09;5010305;28;20208;-70
2023/02/07 01:29:49;;;;;;;13.73;8.73;;;;;;;3.96;48.92;99259.59;4996771;28;20223;-69
2023/02/07 01:32:14;;;;;;;10.23;7.50;;;;;;;3.96;48.99;99264.78;5010367;28;20480;-69
2023/02/07 01:34:40;;;;;;;18.90;8.77;;;;;;;3.99;49.60;99262.06;5008995;28;20275;-70
2023/02/07 01:37:06;;;;;;;16.27;9.30;;;;;;;3.91;49.51;99269.28;5010666;28;20314;-69
2023/02/07 01:39:32;;;;;;;13.07;8.77;;;;;;;3.92;49.75;99269.25;5016814;28;20469;-70
2023/02/07 01:41:57;;;;;;;11.67;8.60;;;;;;;3.90;50.18;99270.22;5011760;28;20189;-70
2023/02/07 01:44:22;;;;;;;14.10;9.03;;;;;;;3.87;50.26;99278.13;5010713;28;20268;-70
2023/02/07 01:46:49;;;;;;;15.17;9.07;;;;;;;3.91;49.43;99284.84;5002879;28;20560;-67
2023/02/07 01:49:16;;;;;;;19.53;9.93;;;;;;;3.84;50.08;99279.91;4992730;28;20208;-70
2023/02/07 01:51:50;;;;;;;17.80;9.37;;;;;;;3.86;50.63;99292.00;4993747;28;20431;-69
2023/02/07 01:54:17;;;;;;;13.10;9.60;;;;;;;3.82;50.49;99292.09;4993138;28;20427;-68
2023/02/07 01:56:45;;;;;;;17.70;10.20;;;;;;;3.63;50.66;99293.72;4993183;28;20459;-69
2023/02/07 01:59:11;;;;;;;14.87;10.30;;;;;;;3.66;50.95;99296.16;5010493;28;20507;-69
2023/02/07 02:01:37;;;;;;;17.20;10.40;;;;;;;3.57;50.87;99289.59;5010852;28;20515;-69
2023/02/07 02:04:03;;;;;;;16.00;10.37;;;;;;;3.61;51.43;99287.72;5010589;28;20482;-69
2023/02/07 02:06:30;;;;;;;14.67;10.13;;;;;;;3.60;51.24;99278.25;4993410;28;20187;-69
2023/02/07 02:08:58;;;;;;;17.63;11.70;;;;;;;3.52;51.54;99283.72;5011712;28;20447;-69
2023/02/07 02:11:48;;;;;;;17.33;11.87;;;;;;;3.60;51.19;99291.22;5011488;28;20423;-69
2023/02/07 02:14:24;;;;;;;20.83;12.20;;;;;;;3.59;51.04;99286.94;5010781;28;20446;-70
2023/02/07 02:17:27;;;;;;;15.90;10.70;;;;;;;3.57;51.07;99287.00;4998535;28;20466;-69
2023/02/07 02:20:05;;;;;;;18.37;11.13;;;;;;;3.39;51.72;99291.13;4993680;28;20453;-69
2023/02/07 02:22:36;;;;;;;19.70;12.40;;;;;;;3.36;51.44;99293.81;4992209;28;20463;-69
2023/02/07 02:25:08;;;;;;;16.70;11.77;;;;;;;3.30;52.03;99294.88;5009459;28;20438;-69
2023/02/07 02:28:24;;;;;;;18.43;11.20;;;;;;;3.29;51.54;99302.69;5001632;28;20584;-69
2023/02/07 02:31:08;;;;;;;18.53;12.30;;;;;;;3.37;51.78;99295.50;4926490;29;21057;-69
2023/02/07 02:33:36;;;;;;;18.20;12.63;;;;;;;3.20;51.49;99296.97;5005607;28;20415;-68
2023/02/07 02:36:09;;;;;;;16.33;11.73;;;;;;;3.20;51.71;99284.00;5009085;28;20447;-68
2023/02/07 02:38:50;;;;;;;17.93;12.70;;;;;;;3.21;50.61;99288.28;4993255;28;20439;-70
2023/02/07 02:41:35;;;;;;;19.97;12.37;;;;;;;3.14;50.79;99285.97;4994666;28;20502;-70
2023/02/07 02:44:07;;;;;;;17.40;12.03;;;;;;;3.01;51.04;99288.16;4983068;28;20431;-70
2023/02/07 02:46:35;;;;;;;17.60;12.00;;;;;;;3.14;51.25;99288.56;5006180;28;20422;-70
2023/02/07 02:49:02;;;;;;;19.07;12.90;;;;;;;3.12;50.68;99288.63;4990594;28;20447;-69
2023/02/07 02:51:28;;;;;;;21.23;12.43;;;;;;;2.98;50.67;99288.25;5008365;28;20431;-69
2023/02/07 02:53:55;;;;;;;19.13;12.37;;;;;;;2.91;50.75;99280.69;4990903;28;20470;-69
2023/02/07 02:57:06;;;;;;;19.07;13.20;;;;;;;2.91;51.01;99282.44;5008253;28;20482;-70
2023/02/07 02:59:44;;;;;;;16.93;12.00;;;;;;;3.01;50.99;99283.81;4985155;28;20930;-69
2023/02/07 03:02:28;;;;;;;22.60;13.13;;;;;;;3.06;50.52;99287.09;5001252;28;20424;-69
2023/02/07 03:05:15;;;;;;;18.97;11.93;;;;;;;3.03;50.55;99291.50;5003314;28;20415;-70
2023/02/07 03:08:12;;;;;;;15.53;12.43;;;;;;;3.04;49.98;99291.47;5003350;28;20927;-69
2023/02/07 03:10:44;;;;;;;20.43;13.20;;;;;;;3.14;50.38;99293.75;4984229;28;20439;-69
2023/02/07 03:13:18;;;;;;;17.60;13.17;;;;;;;3.09;49.66;99306.84;5008637;28;20477;-69
2023/02/07 03:15:51;;;;;;;19.30;13.43;;;;;;;3.11;49.68;99299.88;5015043;28;20493;-69
2023/02/07 03:18:41;;;;;;;19.23;14.03;;;;;;;2.98;50.14;99304.63;5006921;28;20797;-68
2023/02/07 03:21:25;;;;;;;19.83;13.80;;;;;;;3.03;49.97;99307.91;5007824;28;20511;-69
2023/02/07 03:23:52;;;;;;;17.43;12.83;;;;;;;3.05;49.82;99303.53;4992637;28;20427;-69
2023/02/07 03:26:19;;;;;;;19.10;13.60;;;;;;;3.07;49.57;99303.47;4995437;28;20424;-70
2023/02/07 03:28:45;;;;;;;19.97;13.93;;;;;;;3.14;49.86;99304.09;5019185;28;20501;-69
2023/02/07 03:31:13;;;;;;;18.17;13.37;;;;;;;3.06;49.29;99306.97;4990193;28;20517;-69
2023/02/07 03:33:39;;;;;;;20.60;13.90;;;;;;;2.99;49.56;99303.72;4990519;28;20180;-69
2023/02/07 03:36:14;;;;;;;20.20;14.17;;;;;;;3.08;49.84;99305.16;4994099;28;20447;-69
2023/02/07 03:38:39;;;;;;;20.37;14.33;;;;;;;3.08;49.64;99305.16;4996188;28;20200;-69
2023/02/07 03:41:10;;;;;;;22.80;14.90;;;;;;;3.10;49.37;99300.78;5016667;28;20527;-68
2023/02/07 03:43:37;;;;;;;22.67;14.93;;;;;;;3.20;49.37;99309.91;4994215;28;20184;-69
2023/02/07 03:46:03;;;;;;;18.17;14.00;;;;;;;3.07;49.72;99308.66;4993893;28;20423;-69
2023/02/07 03:48:28;;;;;;;22.10;15.13;;;;;;;3.13;49.57;99307.59;5010597;28;20982;-68
2023/02/07 03:50:53;;;;;;;21.43;14.00;;;;;;;3.21;48.78;99315.97;5011555;28;20872;-69
2023/02/07 03:53:19;;;;;;;20.30;13.90;;;;;;;3.22;49.45;99312.44;5011094;28;20890;-69
2023/02/07 03:55:45;;;;;;;21.10;14.20;;;;;;;3.17;49.01;99311.78;5011043;28;20180;-69
2023/02/07 03:58:10;;;;;;;19.73;15.03;;;;;;;3.13;48.66;99313.63;5019208;28;20506;-68
2023/02/07 04:00:36;;;;;;;17.00;13.30;;;;;;;3.19;48.91;99313.41;5011462;28;20224;-69
2023/02/07 04:03:02;;;;;;;23.13;13.40;;;;;;;3.20;48.65;99304.72;4995807;28;20180;-68
2023/02/07 04:05:28;;;;;;;23.37;14.13;;;;;;;3.18;49.26;99309.13;5010737;28;20204;-69
2023/02/07 04:07:53;;;;;;;21.73;15.17;;;;;;;3.04;48.93;99303.56;5010854;28;20788;-69
2023/02/07 04:10:18;;;;;;;18.23;14.10;;;;;;;3.11;48.99;99304.19;5010499;28;20309;-69
2023/02/07 04:12:44;;;;;;;18.73;14.63;;;;;;;3.18;49.25;99297.91;5010755;28;20180;-69
2023/02/07 04:15:10;;;;;;;21.27;13.83;;;;;;;3.15;48.74;99301.44;5024708;28;20188;-69
2023/02/07 04:17:35;;;;;;;21.80;14.77;;;;;;;2.96;48.85;99295.22;5009959;28;20208;-69
2023/02/07 04:20:01;;;;;;;18.23;14.17;;;;;;;2.89;49.19;99284.22;5010729;28;20208;-69
2023/02/07 04:22:28;;;;;;;22.07;13.27;;;;;;;2.94;49.05;99281.47;5010425;28;20190;-67
2023/02/07 04:24:53;;;;;;;20.27;14.23;;;;;;;2.86;48.69;99272.25;5010700;28;20184;-68
2023/02/07 04:27:18;;;;;;;20.20;14.37;;;;;;;2.96;49.38;99275.34;5017199;28;20785;-68
2023/02/07 04:29:44;;;;;;;20.67;14.10;;;;;;;2.99;49.22;99275.22;5019660;28;20279;-70
2023/02/07 04:32:09;;;;;;;21.00;14.70;;;;;;;2.94;48.84;99286.66;5010701;28;20193;-68
2023/02/07 04:34:35;;;;;;;22.30;14.90;;;;;;;3.03;48.62;99287.19;5009504;28;20191;-69
2023/02/07 04:37:00;;;;;;;19.30;13.20;;;;;;;3.06;48.71;99286.22;5009806;28;20283;-70
2023/02/07 04:39:26;;;;;;;24.50;13.87;;;;;;;3.07;48.34;99293.09;5014549;28;20223;-69
2023/02/07 04:41:51;;;;;;;19.17;13.40;;;;;;;3.10;48.05;99293.00;5007803;28;20303;-69
2023/02/07 04:44:16;;;;;;;21.23;14.83;;;;;;;2.96;48.32;99290.03;4995003;28;20181;-70
2023/02/07 04:46:42;;;;;;;19.80;13.37;;;;;;;3.03;48.36;99286.31;5005466;28;20259;-69
2023/02/07 04:49:08;;;;;;;20.33;13.53;;;;;;;3.07;48.46;99291.38;5004221;28;20287;-68
2023/02/07 04:51:33;;;;;;;21.50;13.57;;;;;;;2.99;48.27;99290.78;5010658;28;20181;-69
2023/02/07 04:53:58;;;;;;;18.40;12.73;;;;;;;3.03;48.06;99291.50;5009686;28;20663;-68
2023/02/07 04:56:24;;;;;;;18.23;13.23;;;;;;;2.97;48.19;99287.38;5008356;28;20232;-69
2023/02/07 04:58:49;;;;;;;19.90;14.43;;;;;;;2.85;48.23;99286.09;5021388;28;20200;-69
2023/02/07 05:01:15;;;;;;;18.43;13.03;;;;;;;2.66;48.18;99279.81;5009471;28;20267;-69
2023/02/07 05:03:40;;;;;;;21.17;13.70;;;;;;;2.67;47.96;99284.09;5011318;28;20259;-69
2023/02/07 05:06:06;;;;;;;20.97;12.67;;;;;;;2.55;47.88;99291.38;5009427;28;20272;-70
2023/02/07 05:08:31;;;;;;;21.60;13.30;;;;;;;2.63;48.22;99293.72;5009642;28;20184;-68
2023/02/07 05:10:57;;;;;;;20.53;13.43;;;;;;;2.72;47.63;99283.06;5009538;28;20255;-69
2023/02/07 05:13:23;;;;;;;17.00;12.80;;;;;;;2.57;47.83;99273.22;5016412;28;20187;-68
2023/02/07 05:15:48;;;;;;;20.30;13.23;;;;;;;2.58;47.90;99269.75;5014885;28;20187;-69
2023/02/07 05:18:14;;;;;;;16.57;11.70;;;;;;;2.51;47.96;99279.47;4992504;28;20444;-69
2023/02/07 05:20:39;;;;;;;17.87;12.40;;;;;;;2.59;48.11;99285.22;5009036;28;20223;-69
2023/02/07 05:23:05;;;;;;;17.53;12.57;;;;;;;2.65;47.79;99297.13;5009637;28;20557;-69
2023/02/07 05:25:30;;;;;;;18.80;13.00;;;;;;;2.78;47.46;99287.19;5009177;28;20241;-69
2023/02/07 05:27:56;;;;;;;17.03;12.20;;;;;;;2.78;47.64;99286.34;5010428;28;20272;-69
2023/02/07 05:30:21;;;;;;;21.90;12.73;;;;;;;2.80;47.60;99282.78;5008845;28;20287;-68
2023/02/07 05:35:36;;;;;;;17.93;12.90;;;;;;;2.83;47.62;99281.88;5004586;28;20227;-67
2023/02/07 05:38:05;;;;;;;16.40;12.77;;;;;;;2.90;47.45;99291.09;5010214;28;20455;-68
2023/02/07 05:40:31;;;;;;;20.77;13.97;;;;;;;2.63;47.72;99301.50;5009940;28;20435;-70
2023/02/07 05:42:57;;;;;;;21.57;14.40;;;;;;;2.42;48.70;99305.63;5010482;28;20431;-70
2023/02/07 05:45:22;;;;;;;19.50;13.43;;;;;;;2.29;49.38;99318.13;5008568;28;20430;-70
2023/02/07 05:47:47;;;;;;;21.27;13.30;;;;;;;2.44;48.68;99309.88;5010030;28;20183;-69
2023/02/07 05:50:13;;;;;;;27.33;17.27;;;;;;;2.51;48.88;99305.34;5007827;28;20200;-69
2023/02/07 05:52:38;;;;;;;29.20;18.17;;;;;;;2.43;48.43;99302.16;5008693;28;20180;-69
2023/02/07 05:55:04;;;;;;;31.90;19.00;;;;;;;2.26;48.04;99306.13;4997079;28;20237;-69
2023/02/07 05:57:30;;;;;;;25.37;14.77;;;;;;;2.25;48.34;99296.69;5014376;28;20199;-69
2023/02/07 05:59:55;;;;;;;18.00;12.97;;;;;;;2.39;47.92;99305.75;5009846;28;20208;-68
2023/02/07 06:02:21;;;;;;;19.63;12.70;;;;;;;2.35;47.89;99304.16;5008444;28;20188;-69
2023/02/07 06:04:46;;;;;;;18.93;12.70;;;;;;;2.28;47.73;99300.91;5008716;28;20219;-67
2023/02/07 06:07:12;;;;;;;21.27;13.00;;;;;;;2.05;48.39;99294.72;5008537;28;20169;-69
2023/02/07 06:09:37;;;;;;;16.17;12.17;;;;;;;2.10;48.19;99304.91;5008773;28;20808;-69
2023/02/07 06:12:03;;;;;;;22.60;14.50;;;;;;;1.91;49.23;99299.47;5008815;28;20238;-69
2023/02/07 06:14:28;;;;;;;19.50;13.73;;;;;;;1.90;50.05;99292.59;5011283;28;20186;-69
2023/02/07 06:16:53;;;;;;;23.00;14.90;;;;;;;2.07;49.20;99286.88;5014030;28;20216;-68
2023/02/07 06:19:19;;;;;;;19.80;13.07;;;;;;;2.06;48.71;99280.03;5008625;28;20691;-69
2023/02/07 06:21:44;;;;;;;19.00;12.87;;;;;;;1.97;49.00;99270.81;5008717;28;20571;-68
2023/02/07 06:24:10;;;;;;;22.50;14.37;;;;;;;2.02;49.21;99273.28;4990446;28;20626;-69
2023/02/07 06:26:36;;;;;;;19.73;12.43;;;;;;;2.06;48.61;99272.25;5008466;28;20659;-69
2023/02/07 06:29:01;;;;;;;22.47;12.43;;;;;;;2.02;47.51;99268.94;5010446;28;20642;-68
2023/02/07 06:31:26;;;;;;;18.33;12.83;;;;;;;1.95;47.66;99270.84;5007588;28;20753;-69
2023/02/07 06:33:52;;;;;;;33.57;19.93;;;;;;;1.92;47.84;99276.13;5006102;28;20183;-70
2023/02/07 06:36:18;;;;;;;51.93;25.07;;;;;;;2.12;48.46;99277.25;5005749;28;20223;-70
2023/02/07 06:38:43;;;;;;;75.73;29.80;;;;;;;2.18;47.93;99279.63;5010367;28;20211;-71
2023/02/07 06:41:10;;;;;;;47.77;22.70;;;;;;;2.18;47.70;99287.41;5007494;28;20267;-70
2023/02/07 06:43:39;;;;;;;39.90;17.70;;;;;;;2.19;47.45;99283.09;5007900;28;20180;-68
2023/02/07 06:46:05;;;;;;;28.07;16.70;;;;;;;2.19;47.84;99294.28;5008890;28;20460;-70
2023/02/07 06:48:30;;;;;;;27.67;15.33;;;;;;;2.15;47.99;99300.44;5003166;28;20930;-69
2023/02/07 06:50:56;;;;;;;22.00;13.63;;;;;;;2.22;48.34;99304.53;4987638;28;20431;-69
2023/02/07 06:53:21;;;;;;;21.63;12.97;;;;;;;2.06;48.81;99308.47;5007852;28;20222;-70
2023/02/07 06:55:47;;;;;;;19.90;12.40;;;;;;;2.06;49.52;99322.28;4996685;28;20208;-71
2023/02/07 06:58:12;;;;;;;18.87;13.90;;;;;;;2.00;49.01;99314.69;5011207;28;20737;-70
2023/02/07 07:00:39;;;;;;;19.27;12.50;;;;;;;1.97;49.81;99318.22;5006483;28;20250;-69
2023/02/07 07:03:04;;;;;;;20.70;12.60;;;;;;;2.08;49.27;99310.13;4979452;28;20263;-70
2023/02/07 07:05:30;;;;;;;20.33;12.77;;;;;;;1.92;49.73;99304.56;5011883;28;20415;-69
2023/02/07 07:07:56;;;;;;;23.90;14.43;;;;;;;1.81;50.17;99306.63;5012750;28;20234;-70
2023/02/07 07:10:22;;;;;;;19.60;14.30;;;;;;;1.83;50.74;99312.63;5011716;28;20493;-71
2023/02/07 07:12:47;;;;;;;25.43;14.63;;;;;;;1.98;50.32;99319.06;5004705;28;20181;-70
2023/02/07 07:15:14;;;;;;;19.53;12.83;;;;;;;1.93;50.47;99318.38;4986117;28;20172;-70
2023/02/07 07:17:39;;;;;;;20.77;13.50;;;;;;;1.95;49.98;99316.59;5008370;28;20231;-70
2023/02/07 07:20:06;;;;;;;19.30;13.90;;;;;;;2.03;50.21;99319.78;4994907;28;21015;-69
2023/02/07 07:22:32;;;;;;;20.83;13.67;;;;;;;2.05;50.19;99323.16;5004936;28;20875;-70
2023/02/07 07:24:58;;;;;;;19.70;13.67;;;;;;;2.01;50.43;99325.91;5007815;28;20420;-69
2023/02/07 07:27:23;;;;;;;19.23;13.63;;;;;;;2.09;50.49;99335.09;5013503;28;20428;-68
2023/02/07 07:29:48;;;;;;;20.73;14.07;;;;;;;2.04;50.70;99334.41;5011823;28;20204;-70
2023/02/07 07:32:15;;;;;;;22.70;14.20;;;;;;;1.88;51.56;99330.56;5011486;28;20225;-69
2023/02/07 07:34:40;;;;;;;23.40;13.90;;;;;;;1.65;51.37;99327.75;5012762;28;20203;-71
2023/02/07 07:37:06;;;;;;;23.30;14.73;;;;;;;1.64;51.38;99338.16;5011168;28;20463;-70
2023/02/07 07:39:31;;;;;;;24.10;14.67;;;;;;;1.88;51.34;99334.03;5000429;28;21003;-69
2023/02/07 07:41:57;;;;;;;23.67;15.53;;;;;;;2.05;50.81;99328.34;4994349;28;20183;-69
2023/02/07 07:44:22;;;;;;;21.30;14.47;;;;;;;2.22;50.51;99327.81;5011407;28;20187;-70
2023/02/07 07:46:48;;;;;;;25.13;15.17;;;;;;;2.34;50.50;99328.34;5010959;28;20272;-70
2023/02/07 07:49:13;;;;;;;24.20;14.60;;;;;;;2.46;49.82;99322.75;5009938;28;20204;-70
2023/02/07 07:51:38;;;;;;;22.90;15.10;;;;;;;2.30;49.78;99318.06;5014816;28;20211;-69
2023/02/07 07:54:04;;;;;;;20.40;13.70;;;;;;;2.19;50.25;99317.56;5011807;28;20652;-67
2023/02/07 07:56:30;;;;;;;23.30;15.87;;;;;;;2.16;51.06;99320.22;4995819;28;20758;-70
2023/02/07 07:58:56;;;;;;;23.70;15.00;;;;;;;2.18;51.02;99318.44;5011208;28;20200;-68
2023/02/07 08:01:21;;;;;;;24.47;16.17;;;;;;;2.36;50.59;99317.03;5010516;28;20454;-70
2023/02/07 08:03:46;;;;;;;24.77;15.63;;;;;;;2.34;50.99;99317.97;5011313;28;20187;-70
2023/02/07 08:06:12;;;;;;;23.03;15.97;;;;;;;2.40;50.35;99317.75;4993295;28;20180;-70
2023/02/07 08:08:38;;;;;;;21.87;14.00;;;;;;;2.51;49.41;99320.88;5010085;28;20306;-70
2023/02/07 08:11:05;;;;;;;21.07;14.17;;;;;;;2.74;48.92;99327.06;5011451;28;20955;-69
2023/02/07 08:13:31;;;;;;;24.47;14.37;;;;;;;2.70;49.12;99325.44;5014357;28;20195;-70
2023/02/07 08:16:00;;;;;;;23.80;13.87;;;;;;;2.99;48.72;99341.78;5013302;28;20968;-69
2023/02/07 08:18:25;;;;;;;22.67;14.40;;;;;;;3.27;47.84;99338.22;5012532;28;20196;-69
2023/02/07 08:20:50;;;;;;;21.53;13.90;;;;;;;3.58;47.37;99353.53;5012941;28;20859;-70
2023/02/07 08:23:16;;;;;;;34.77;14.47;;;;;;;3.93;46.84;99353.97;5010683;28;20188;-71
2023/02/07 08:25:45;;;;;;;20.50;14.10;;;;;;;4.15;45.14;99356.63;4988173;28;20184;-71
2023/02/07 08:28:11;;;;;;;23.27;13.23;;;;;;;4.36;44.44;99354.06;4993539;28;20267;-71
2023/02/07 08:30:37;;;;;;;18.03;12.90;;;;;;;4.58;44.01;99358.41;4999523;28;20886;-70
2023/02/07 08:33:02;;;;;;;30.10;14.47;;;;;;;4.91;43.87;99361.38;5010900;28;20176;-70
2023/02/07 08:35:28;;;;;;;18.07;13.77;;;;;;;5.31;42.80;99366.63;5010715;28;20743;-70
2023/02/07 08:37:54;;;;;;;22.70;14.77;;;;;;;5.71;42.06;99361.47;4992853;28;20197;-69
2023/02/07 08:40:20;;;;;;;20.07;13.87;;;;;;;5.95;41.31;99363.88;5016794;28;20205;-69
2023/02/07 08:42:46;;;;;;;17.57;13.10;;;;;;;6.33;41.04;99371.69;5018632;28;20420;-70
2023/02/07 08:45:11;;;;;;;21.50;14.10;;;;;;;6.52;39.50;99383.84;5008230;28;20481;-70
2023/02/07 08:47:37;;;;;;;22.43;13.20;;;;;;;6.73;39.79;99382.81;5010166;28;20177;-69
2023/02/07 08:50:04;;;;;;;17.67;12.90;;;;;;;6.88;39.10;99399.47;5010010;28;20200;-70
2023/02/07 08:52:29;;;;;;;20.63;14.33;;;;;;;7.19;38.79;99400.53;5009765;28;20265;-70
2023/02/07 08:54:54;;;;;;;19.03;13.30;;;;;;;7.35;37.75;99394.53;5010503;28;20483;-69
2023/02/07 08:57:24;;;;;;;18.70;13.30;;;;;;;7.51;37.60;99395.47;5009444;28;20296;-70
2023/02/07 08:59:50;;;;;;;20.33;13.27;;;;;;;7.83;37.24;99392.91;5010056;28;20200;-68
2023/02/07 09:02:16;;;;;;;21.50;12.80;;;;;;;8.14;37.06;99379.97;5009608;28;20419;-70
2023/02/07 09:04:42;;;;;;;19.90;12.53;;;;;;;8.35;35.84;99372.72;5010644;28;20517;-69
2023/02/07 09:07:08;;;;;;;15.93;12.27;;;;;;;8.78;35.28;99371.28;4991618;28;20181;-68
2023/02/07 09:09:34;;;;;;;17.03;11.67;;;;;;;9.01;35.04;99368.19;5010158;28;20443;-70
2023/02/07 09:11:59;;;;;;;19.90;12.13;;;;;;;9.11;33.77;99354.56;4998835;28;20771;-70
2023/02/07 09:14:25;;;;;;;19.80;14.93;;;;;;;8.65;34.23;99348.47;5010365;28;20233;-71
2023/02/07 09:16:51;;;;;;;18.23;12.10;;;;;;;8.53;34.43;99352.59;5009163;28;20218;-70
2023/02/07 09:19:16;;;;;;;15.80;12.20;;;;;;;8.57;34.37;99340.19;4991922;28;20300;-70
2023/02/07 09:21:42;;;;;;;34.13;17.07;;;;;;;8.91;35.20;99343.50;5009373;28;20196;-70
2023/02/07 09:24:07;;;;;;;20.90;14.70;;;;;;;9.28;33.98;99333.47;5009529;28;20268;-69
2023/02/07 09:26:34;;;;;;;15.83;11.17;;;;;;;9.50;33.48;99348.72;5010408;28;20263;-70
2023/02/07 09:29:00;;;;;;;16.37;12.03;;;;;;;9.66;33.21;99350.38;5009602;28;20208;-70
2023/02/07 09:31:25;;;;;;;16.93;11.90;;;;;;;9.78;33.05;99352.25;5009103;28;20844;-70
2023/02/07 09:33:51;;;;;;;17.63;11.63;;;;;;;10.01;32.19;99357.00;5009677;28;20538;-69
2023/02/07 09:36:23;;;;;;;14.13;11.47;;;;;;;10.03;31.52;99355.97;5009824;28;20750;-70
2023/02/07 09:38:48;;;;;;;16.30;12.70;;;;;;;10.23;32.18;99357.31;5013555;28;20442;-69
2023/02/07 09:41:18;;;;;;;16.93;11.97;;;;;;;10.44;31.94;99359.56;5010550;28;20438;-69
2023/02/07 09:43:58;;;;;;;19.63;11.87;;;;;;;10.48;31.06;99353.16;5018113;28;20223;-70
2023/02/07 09:46:29;;;;;;;18.00;12.10;;;;;;;10.50;31.26;99361.78;4991434;28;20423;-69
2023/02/07 09:49:03;;;;;;;20.70;13.17;;;;;;;10.83;31.41;99364.94;4975636;28;20451;-70
2023/02/07 09:51:30;;;;;;;14.70;11.00;;;;;;;11.26;30.49;99372.56;4991541;28;20420;-70
2023/02/07 09:54:03;;;;;;;17.63;11.53;;;;;;;11.21;30.42;99377.28;4992112;28;20507;-71
2023/02/07 09:56:28;;;;;;;15.77;10.83;;;;;;;11.55;30.54;99387.28;4990693;28;21006;-70
2023/02/07 09:59:10;;;;;;;17.17;10.77;;;;;;;11.65;30.28;99381.31;4991368;28;20439;-70
2023/02/07 10:01:47;;;;;;;15.00;10.90;;;;;;;11.53;29.93;99388.22;5001631;28;20668;-71
2023/02/07 10:04:22;;;;;;;22.03;11.10;;;;;;;11.50;29.91;99391.06;5008827;28;20473;-68
2023/02/07 10:06:58;;;;;;;16.60;11.10;;;;;;;11.37;29.78;99382.31;5008722;28;20942;-70
2023/02/07 10:09:27;;;;;;;14.60;11.27;;;;;;;11.30;29.62;99378.44;4991510;28;20431;-71
2023/02/07 10:12:03;;;;;;;14.07;11.60;;;;;;;11.34;30.18;99369.44;4997128;28;20476;-70
2023/02/07 10:14:51;;;;;;;14.53;11.03;;;;;;;11.42;29.34;99372.38;4991815;28;20787;-70
2023/02/07 10:17:50;;;;;;;13.73;11.60;;;;;;;11.74;29.57;99371.91;5008211;28;20463;-70
2023/02/07 10:20:29;;;;;;;16.03;11.27;;;;;;;11.67;29.24;99373.31;5009470;28;20447;-71
2023/02/07 10:23:19;;;;;;;17.83;12.20;;;;;;;11.82;29.39;99377.50;5008813;28;20419;-71
2023/02/07 10:25:52;;;;;;;15.23;10.53;;;;;;;12.02;29.53;99380.53;5003976;28;20857;-70
2023/02/07 10:28:36;;;;;;;17.87;11.40;;;;;;;12.43;28.97;99379.38;5001013;28;20426;-70
2023/02/07 10:31:04;;;;;;;17.83;11.97;;;;;;;12.40;28.30;99373.50;4987354;28;20416;-70
2023/02/07 10:33:32;;;;;;;15.60;11.43;;;;;;;12.62;28.46;99378.00;4994402;28;21082;-71
2023/02/07 10:36:01;;;;;;;16.87;11.37;;;;;;;13.05;28.06;99379.25;5012816;28;20422;-70
2023/02/07 10:38:32;;;;;;;15.23;11.67;;;;;;;13.15;27.71;99374.13;5010272;28;20423;-71
2023/02/07 10:41:09;;;;;;;18.50;12.60;;;;;;;13.06;28.08;99370.41;5000683;28;20825;-70
2023/02/07 10:43:35;;;;;;;15.47;11.50;;;;;;;13.15;27.84;99367.09;4998499;28;21003;-70
2023/02/07 10:46:05;;;;;;;16.03;11.60;;;;;;;12.94;27.65;99372.19;4991694;28;20521;-70
2023/02/07 10:48:31;;;;;;;22.40;10.43;;;;;;;13.06;27.75;99379.16;4994817;28;20183;-69
2023/02/07 10:50:59;;;;;;;14.63;10.80;;;;;;;13.24;27.53;99376.06;5012978;28;20481;-71
2023/02/07 10:53:46;;;;;;;14.83;11.77;;;;;;;13.35;27.17;99370.84;5009689;28;20503;-71
2023/02/07 10:56:20;;;;;;;18.27;11.37;;;;;;;13.32;27.27;99370.22;5009754;28;20431;-71
2023/02/07 10:58:46;;;;;;;17.03;10.60;;;;;;;13.46;27.10;99369.22;4995103;28;20454;-71
2023/02/07 11:01:20;;;;;;;14.37;12.07;;;;;;;13.47;26.78;99381.44;5012364;28;21010;-71
2023/02/07 11:03:46;;;;;;;18.13;11.73;;;;;;;13.50;26.43;99375.91;5012414;28;20176;-71
2023/02/07 11:06:14;;;;;;;16.80;10.80;;;;;;;13.89;26.38;99373.78;5012023;28;20423;-70
2023/02/07 11:08:40;;;;;;;14.17;11.43;;;;;;;14.05;26.37;99373.38;4994314;28;20813;-70
2023/02/07 11:11:18;;;;;;;17.10;12.40;;;;;;;13.90;26.09;99382.53;5012133;28;20426;-70
2023/02/07 11:13:46;;;;;;;13.20;10.80;;;;;;;13.81;26.29;99381.44;5005585;28;20425;-70
2023/02/07 11:16:15;;;;;;;20.07;11.37;;;;;;;13.88;26.02;99377.38;5011685;28;20422;-70
2023/02/07 11:18:43;;;;;;;16.83;11.70;;;;;;;13.71;26.27;99380.50;5011811;28;20778;-70
2023/02/07 11:21:23;;;;;;;14.03;10.90;;;;;;;13.54;26.82;99376.53;4994167;28;21086;-70
2023/02/07 11:23:49;;;;;;;16.27;11.10;;;;;;;13.46;26.12;99379.75;5004557;28;20429;-71
2023/02/07 11:26:17;;;;;;;18.60;11.70;;;;;;;13.47;26.77;99379.63;4993415;28;20815;-69
2023/02/07 11:28:42;;;;;;;15.90;11.60;;;;;;;13.62;26.11;99374.97;4993233;28;20435;-71
2023/02/07 11:31:13;;;;;;;16.23;11.43;;;;;;;13.61;26.26;99375.91;4978796;28;20533;-71
2023/02/07 11:33:38;;;;;;;15.20;11.37;;;;;;;13.59;26.42;99377.84;4993702;28;20287;-71